Terminal Aerodrome Forecast
Issued by NWS

Home | Current Version | Previous Version | Text Only | Print | Product List | Glossary On
Versions: 1 2 3 4 5 6 7 8 9 10 11 12 13
000
FTUS42 KILM 231120
TAFCRE
TAF
KCRE 231120Z 2312/2412 09012KT P6SM VCSH SCT060 BKN090
     FM231300 10015G25KT P6SM -RA SCT030 OVC050
     FM231600 10020G30KT 4SM RA OVC025
     FM232100 09012G22KT 3SM RA BR OVC015
     FM240100 10021G28KT 2SM RA BR OVC007=

USA.gov is the U.S. government's official web portal to all federal, state and local government web resources and services.